Pleasantview, Idaho
Current Conditions -  °F | °C
As of 6:51 AM on Thursday 30 Oct 2014 (Local Time) from KLGU Reporting Station
Broken Clouds Broken Clouds  
Wind Chill: 32°   Ceiling: 9500
Heat Index: 32°   Visibility: 10mi
Dew Point: 27°   Wind: 0mph
Humidity: 82%   Direction: NA
Pressure: 30.31"   Gusts: NA
Location:  42.2285°N, 112.313°W
Report Text: KLGU 301251Z AUTO 00000KT 10SM BKN095 00/M03 A3031 RMK AO2 SLP261 T00001028 TSNO
Loading
Personal Weather Stations






























Interactive Weather Map
Tropical Storm Tracking
New forecast layout! Learn more

10-Day Weather Forecast

Advertisements
Track Severe Weather on mobile